Time;durP1;ratioP1;P1;durP2;ratioP2;P2;SDS_P1;SDS_P2;PMS_P1;PMS_P2;Temp;Humidity;BMP_temperature;BMP_pressure;BME280_temperature;BME280_humidity;BME280_pressure;Samples;Min_cycle;Max_cycle;Signal;HPM_P1;HPM_P2
2023/06/26 00:01:34;;;;;;;0.00;0.00;;;;;;;33.12;36.16;101221.59;5034590;28;20494;-74
2023/06/26 00:04:00;;;;;;;0.00;0.00;;;;;;;33.08;36.71;101215.16;5033868;28;20033;-74
2023/06/26 00:06:26;;;;;;;0.00;0.00;;;;;;;33.12;36.81;101213.25;5033364;28;20034;-73
2023/06/26 00:08:53;;;;;;;0.00;0.00;;;;;;;33.13;37.07;101212.09;5033559;28;20053;-73
2023/06/26 00:11:19;;;;;;;0.00;0.00;;;;;;;33.03;36.73;101209.91;5033173;28;20112;-73
2023/06/26 00:13:45;;;;;;;0.00;0.00;;;;;;;33.15;37.25;101206.16;5034093;28;20052;-73
2023/06/26 00:16:10;;;;;;;0.00;0.00;;;;;;;33.16;37.06;101205.78;5033539;28;20041;-73
2023/06/26 00:18:36;;;;;;;0.00;0.00;;;;;;;33.16;36.93;101200.19;5033504;28;20064;-74
2023/06/26 00:21:01;;;;;;;0.00;0.00;;;;;;;33.21;36.58;101199.91;5033074;28;20049;-73
2023/06/26 00:23:27;;;;;;;0.00;0.00;;;;;;;33.03;36.75;101193.19;5033268;28;20034;-74
2023/06/26 00:25:53;;;;;;;0.00;0.00;;;;;;;32.96;37.23;101195.00;5033881;28;20489;-74
2023/06/26 00:28:18;;;;;;;0.00;0.00;;;;;;;33.14;37.01;101187.84;5033535;28;20044;-74
2023/06/26 00:30:43;;;;;;;0.00;0.00;;;;;;;33.08;37.42;101184.53;5033451;28;20037;-74
2023/06/26 00:33:09;;;;;;;0.00;0.00;;;;;;;32.93;37.36;101188.19;5033178;28;20025;-73
2023/06/26 00:35:35;;;;;;;0.00;0.00;;;;;;;33.24;37.18;101168.50;5033425;28;20466;-73
2023/06/26 00:38:01;;;;;;;0.00;0.00;;;;;;;33.07;37.67;101170.97;5033825;28;20025;-73
2023/06/26 00:40:27;;;;;;;0.00;0.00;;;;;;;32.92;37.77;101180.19;5033300;28;20075;-73
2023/06/26 00:42:52;;;;;;;0.00;0.00;;;;;;;32.73;37.76;101176.25;5032725;28;20033;-73
2023/06/26 00:45:18;;;;;;;0.00;0.00;;;;;;;32.61;38.46;101176.38;5033293;28;20037;-74
2023/06/26 00:47:43;;;;;;;0.00;0.00;;;;;;;32.62;38.05;101168.84;5033218;28;20025;-73
2023/06/26 00:50:09;;;;;;;0.00;0.00;;;;;;;32.76;38.28;101164.38;5032702;28;20496;-73
2023/06/26 00:52:34;;;;;;;0.00;0.00;;;;;;;32.89;37.52;101162.25;5031043;28;20044;-72
2023/06/26 00:55:00;;;;;;;0.00;0.00;;;;;;;32.74;38.03;101163.13;5032190;28;20555;-75
2023/06/26 00:57:25;;;;;;;0.00;0.00;;;;;;;32.81;37.95;101161.28;5032706;28;20041;-72
2023/06/26 00:59:51;;;;;;;0.00;0.00;;;;;;;32.86;37.32;101149.06;5032403;28;20386;-73
2023/06/26 01:02:20;;;;;;;0.00;0.00;;;;;;;32.92;37.87;101147.59;5032456;28;20025;-75
2023/06/26 01:04:49;;;;;;;0.00;0.00;;;;;;;32.94;37.10;101150.81;5014780;28;20497;-73
2023/06/26 01:07:18;;;;;;;0.00;0.00;;;;;;;32.82;37.90;101142.63;5032275;28;20041;-73
2023/06/26 01:09:44;;;;;;;0.00;0.00;;;;;;;32.89;37.82;101145.53;5021549;28;20034;-74
2023/06/26 01:12:10;;;;;;;0.00;0.00;;;;;;;32.69;38.22;101143.91;5013908;28;20032;-71
2023/06/26 01:15:19;;;;;;;0.00;0.00;;;;;;;32.77;37.64;101143.72;5031999;28;20033;-73
2023/06/26 01:17:47;;;;;;;0.00;0.00;;;;;;;32.70;37.64;101139.97;5032182;28;20029;-73
2023/06/26 01:20:14;;;;;;;0.00;0.00;;;;;;;32.54;38.09;101145.63;5011977;28;20163;-73
2023/06/26 01:23:05;;;;;;;0.00;0.00;;;;;;;32.60;38.76;101151.69;5026468;28;20057;-74
2023/06/26 01:25:49;;;;;;;0.00;0.00;;;;;;;32.53;38.31;101149.56;5013291;28;20088;-74
2023/06/26 01:28:17;;;;;;;0.00;0.00;;;;;;;32.30;39.23;101151.41;5012392;28;20037;-73
2023/06/26 01:30:45;;;;;;;0.00;0.00;;;;;;;32.33;40.06;101145.16;5012131;28;20060;-74
2023/06/26 01:33:12;;;;;;;0.00;0.00;;;;;;;32.10;40.16;101143.41;5012205;28;20084;-73
2023/06/26 01:35:37;;;;;;;0.00;0.00;;;;;;;31.95;40.29;101140.31;4994536;28;20041;-74
2023/06/26 01:38:20;;;;;;;0.00;0.00;;;;;;;32.33;39.51;101141.56;5011907;28;20109;-71
2023/06/26 01:40:46;;;;;;;0.00;0.00;;;;;;;32.13;39.48;101131.56;5012503;28;20113;-71
2023/06/26 01:43:24;;;;;;;0.00;0.00;;;;;;;32.13;39.61;101131.56;5012120;28;20126;-74
2023/06/26 01:45:53;;;;;;;0.00;0.00;;;;;;;32.00;40.26;101137.22;5011925;28;20042;-72
2023/06/26 01:48:30;;;;;;;0.00;0.00;;;;;;;32.08;39.47;101137.41;5012175;28;20041;-72
2023/06/26 01:50:59;;;;;;;0.00;0.00;;;;;;;32.02;39.64;101139.66;4994535;28;20633;-74
2023/06/26 01:53:28;;;;;;;0.00;0.00;;;;;;;31.98;39.37;101153.47;5012302;28;20048;-73
2023/06/26 01:56:07;;;;;;;0.00;0.00;;;;;;;31.91;39.84;101150.53;5012560;28;20072;-74
2023/06/26 01:58:33;;;;;;;0.00;0.00;;;;;;;31.98;39.27;101156.25;5022872;28;20096;-74
2023/06/26 02:01:00;;;;;;;0.00;0.00;;;;;;;31.90;39.39;101151.66;5030491;28;20049;-74
2023/06/26 02:03:25;;;;;;;0.00;0.00;;;;;;;31.73;40.07;101146.50;5031816;28;20505;-73
2023/06/26 02:05:51;;;;;;;0.00;0.00;;;;;;;31.94;39.38;101149.81;5031138;28;20025;-73
2023/06/26 02:08:16;;;;;;;0.00;0.00;;;;;;;31.73;39.75;101145.66;5033880;28;20032;-74
2023/06/26 02:10:42;;;;;;;0.00;0.00;;;;;;;31.93;39.81;101145.41;5035715;28;20136;-73
2023/06/26 02:13:07;;;;;;;0.00;0.00;;;;;;;31.98;39.12;101155.44;5031063;28;20053;-73
2023/06/26 02:15:32;;;;;;;0.00;0.00;;;;;;;31.81;39.20;101153.03;5031245;28;20041;-74
2023/06/26 02:17:58;;;;;;;0.00;0.00;;;;;;;31.89;39.05;101158.41;5031551;28;20036;-72
2023/06/26 02:20:23;;;;;;;0.00;0.00;;;;;;;31.82;39.67;101158.22;5031384;28;20092;-75
2023/06/26 02:22:48;;;;;;;0.00;0.00;;;;;;;31.95;39.00;101158.97;5013984;28;20132;-74
2023/06/26 02:25:14;;;;;;;0.00;0.00;;;;;;;31.90;39.01;101162.00;5031231;28;20049;-73
2023/06/26 02:27:39;;;;;;;0.00;0.00;;;;;;;31.83;38.53;101154.28;5031146;28;20537;-73
2023/06/26 02:30:24;;;;;;;0.00;0.00;;;;;;;31.72;39.37;101158.78;5031148;28;20029;-74
2023/06/26 02:32:50;;;;;;;0.00;0.00;;;;;;;31.64;39.93;101156.19;5031193;28;20025;-74
2023/06/26 02:35:15;;;;;;;0.00;0.00;;;;;;;32.12;38.77;101160.56;5048874;28;20067;-73
2023/06/26 02:37:40;;;;;;;0.00;0.00;;;;;;;32.25;37.54;101154.50;5051588;28;20021;-74
2023/06/26 02:40:08;;;;;;;0.00;0.00;;;;;;;32.32;37.00;101159.41;5050759;28;20032;-71
2023/06/26 02:42:35;;;;;;;0.00;0.00;;;;;;;32.53;36.23;101157.13;5032732;28;20056;-73
2023/06/26 02:45:00;;;;;;;0.00;0.00;;;;;;;32.51;35.78;101162.25;5050747;28;20037;-75
2023/06/26 02:47:26;;;;;;;0.00;0.00;;;;;;;32.35;35.84;101155.91;5051295;28;20036;-73
2023/06/26 02:49:51;;;;;;;0.00;0.00;;;;;;;32.60;36.03;101154.47;5051646;28;20024;-75
2023/06/26 02:52:16;;;;;;;0.00;0.00;;;;;;;32.14;37.12;101161.00;5050910;28;20375;-73
2023/06/26 02:54:42;;;;;;;0.00;0.00;;;;;;;32.50;36.35;101163.41;5041339;28;20029;-74
2023/06/26 02:57:07;;;;;;;0.00;0.00;;;;;;;32.00;37.23;101165.03;5013270;28;20040;-73
2023/06/26 02:59:32;;;;;;;0.00;0.00;;;;;;;32.26;36.57;101169.19;5031255;28;20034;-73
2023/06/26 03:01:58;;;;;;;0.00;0.00;;;;;;;32.36;36.57;101172.22;5013177;28;20045;-75
2023/06/26 03:04:24;;;;;;;0.00;0.00;;;;;;;32.19;37.54;101174.59;5030771;28;20034;-73
2023/06/26 03:06:49;;;;;;;0.00;0.00;;;;;;;32.34;36.67;101180.13;5031160;28;20087;-74
2023/06/26 03:09:16;;;;;;;0.00;0.00;;;;;;;32.14;36.52;101186.03;5030619;28;20095;-74
2023/06/26 03:11:41;;;;;;;0.00;0.00;;;;;;;31.58;38.10;101171.50;5030493;28;20194;-74
2023/06/26 03:14:06;;;;;;;0.00;0.00;;;;;;;31.43;38.29;101177.88;5020329;28;20049;-74
2023/06/26 03:16:32;;;;;;;0.00;0.00;;;;;;;31.64;38.90;101186.75;5018489;28;20033;-73
2023/06/26 03:18:57;;;;;;;0.00;0.00;;;;;;;31.07;39.46;101193.56;5034556;28;20343;-76
2023/06/26 03:21:23;;;;;;;0.00;0.00;;;;;;;30.13;42.59;101185.91;5033762;28;20490;-73
2023/06/26 03:23:48;;;;;;;0.00;0.00;;;;;;;31.05;41.03;101190.31;5029112;28;20045;-73
2023/06/26 03:26:14;;;;;;;0.00;0.00;;;;;;;30.67;41.88;101180.81;5032874;28;20040;-74
2023/06/26 03:28:40;;;;;;;0.00;0.00;;;;;;;30.39;42.51;101186.31;5016118;28;20030;-74
2023/06/26 03:31:06;;;;;;;0.00;0.00;;;;;;;30.87;41.91;101177.91;5033753;28;20041;-74
2023/06/26 03:33:31;;;;;;;0.00;0.00;;;;;;;31.11;41.37;101188.88;5033660;28;20033;-72
2023/06/26 03:35:57;;;;;;;0.00;0.00;;;;;;;31.02;41.10;101185.47;5034021;28;20037;-75
2023/06/26 03:38:23;;;;;;;0.00;0.00;;;;;;;31.08;40.83;101184.03;5034212;28;20021;-74
2023/06/26 03:40:49;;;;;;;0.00;0.00;;;;;;;31.20;40.55;101185.94;5034777;28;20060;-74
2023/06/26 03:43:14;;;;;;;0.00;0.00;;;;;;;30.91;40.97;101180.78;5033828;28;20056;-74
2023/06/26 03:45:40;;;;;;;0.00;0.00;;;;;;;31.14;40.93;101181.81;5033739;28;20040;-74
2023/06/26 03:48:05;;;;;;;0.00;0.00;;;;;;;30.79;40.82;101181.59;5032422;28;20116;-73
2023/06/26 03:50:30;;;;;;;0.00;0.00;;;;;;;31.16;40.23;101180.31;5033626;28;20456;-73
2023/06/26 03:52:56;;;;;;;0.00;0.00;;;;;;;31.27;40.43;101185.34;5034261;28;20029;-74
2023/06/26 03:55:23;;;;;;;0.00;0.00;;;;;;;31.10;40.78;101186.47;5033715;28;20389;-74
2023/06/26 03:57:48;;;;;;;0.00;0.00;;;;;;;30.45;42.67;101193.25;5033616;28;20033;-73
2023/06/26 04:00:14;;;;;;;0.00;0.00;;;;;;;29.93;43.98;101193.19;5033677;28;20098;-73
2023/06/26 04:02:40;;;;;;;0.00;0.00;;;;;;;30.05;44.37;101195.91;5031903;28;20056;-74
2023/06/26 04:05:05;;;;;;;0.00;0.00;;;;;;;29.75;45.30;101200.09;5032444;28;20026;-72
2023/06/26 04:07:31;;;;;;;0.00;0.00;;;;;;;28.91;47.65;101202.56;5033257;28;20037;-72
2023/06/26 04:09:57;;;;;;;0.00;0.00;;;;;;;29.49;46.46;101207.84;5031412;28;20079;-73
2023/06/26 04:12:22;;;;;;;0.00;0.00;;;;;;;29.79;45.30;101205.75;5033536;28;20037;-73
2023/06/26 04:14:48;;;;;;;0.00;0.00;;;;;;;30.12;44.56;101214.75;5015446;28;20384;-72
2023/06/26 04:17:13;;;;;;;0.00;0.00;;;;;;;29.78;45.68;101216.00;5030355;28;20044;-74
2023/06/26 04:19:38;;;;;;;0.00;0.00;;;;;;;28.99;47.44;101221.84;5031967;28;20061;-73
2023/06/26 04:22:04;;;;;;;0.00;0.00;;;;;;;28.61;48.66;101226.72;5030832;28;20057;-73
2023/06/26 04:24:29;;;;;;;0.00;0.00;;;;;;;29.57;46.26;101226.34;5015524;28;20125;-72
2023/06/26 04:26:56;;;;;;;0.00;0.00;;;;;;;29.46;46.66;101225.19;5033777;28;20028;-72
2023/06/26 04:29:25;;;;;;;0.00;0.00;;;;;;;29.25;47.03;101229.94;5033738;28;20033;-73
2023/06/26 04:31:51;;;;;;;0.00;0.00;;;;;;;29.04;47.70;101234.69;5033470;28;20041;-74
2023/06/26 04:34:16;;;;;;;0.00;0.00;;;;;;;28.95;47.98;101243.06;5033880;28;20091;-73
2023/06/26 04:36:46;;;;;;;0.00;0.00;;;;;;;29.44;46.95;101249.63;5033638;28;20037;-73
2023/06/26 04:39:11;;;;;;;0.00;0.00;;;;;;;29.74;46.46;101251.09;5033264;28;20049;-72
2023/06/26 04:41:37;;;;;;;0.00;0.00;;;;;;;28.65;48.92;101249.81;5038339;28;20027;-73
2023/06/26 04:44:03;;;;;;;0.00;0.00;;;;;;;28.34;49.53;101257.63;5040876;28;20044;-73
2023/06/26 04:46:28;;;;;;;0.00;0.00;;;;;;;28.88;48.60;101258.56;5042092;28;20029;-74
2023/06/26 04:48:53;;;;;;;0.00;0.00;;;;;;;28.50;49.48;101239.31;5019922;28;20030;-73
2023/06/26 04:51:20;;;;;;;0.00;0.00;;;;;;;29.04;47.65;101248.50;5045856;28;20044;-74
2023/06/26 04:53:46;;;;;;;0.00;0.00;;;;;;;28.75;48.70;101246.66;5042279;28;20064;-73
2023/06/26 04:56:11;;;;;;;0.00;0.00;;;;;;;28.45;49.54;101251.38;5041110;28;20041;-78
2023/06/26 04:58:37;;;;;;;0.00;0.00;;;;;;;28.15;50.43;101255.28;5039766;28;20040;-72
2023/06/26 05:01:06;;;;;;;0.00;0.00;;;;;;;28.24;50.67;101255.25;5036240;28;20037;-74
2023/06/26 05:03:32;;;;;;;0.00;0.00;;;;;;;27.96;51.21;101265.94;5036018;28;20069;-72
2023/06/26 05:05:57;;;;;;;0.00;0.00;;;;;;;28.05;51.07;101265.91;5035459;28;20055;-75
2023/06/26 05:08:26;;;;;;;0.00;0.00;;;;;;;28.27;50.75;101277.50;5047384;28;20025;-75
2023/06/26 05:10:53;;;;;;;0.00;0.00;;;;;;;28.31;51.17;101270.16;5044144;28;20068;-73
2023/06/26 05:13:19;;;;;;;0.00;0.00;;;;;;;28.79;49.04;101269.72;5037552;28;20549;-74
2023/06/26 05:15:45;;;;;;;0.00;0.00;;;;;;;28.18;50.67;101273.97;5032188;28;20045;-74
2023/06/26 05:18:11;;;;;;;0.00;0.00;;;;;;;28.24;51.15;101280.13;5031821;28;20026;-71
2023/06/26 05:20:36;;;;;;;0.00;0.00;;;;;;;28.27;51.74;101296.03;5031369;28;20057;-71
2023/06/26 05:23:03;;;;;;;0.00;0.00;;;;;;;27.59;53.78;101295.09;5011450;28;20387;-67
2023/06/26 05:25:33;;;;;;;0.00;0.00;;;;;;;27.86;53.48;101304.13;5022333;28;20088;-68
2023/06/26 05:27:59;;;;;;;0.00;0.00;;;;;;;27.80;53.08;101306.25;5026291;28;20446;-70
2023/06/26 05:30:25;;;;;;;0.00;0.00;;;;;;;28.42;51.71;101309.31;5029448;28;20037;-71
2023/06/26 05:32:51;;;;;;;0.00;0.00;;;;;;;27.96;52.47;101310.16;5021820;28;20037;-70
2023/06/26 05:35:18;;;;;;;0.00;0.00;;;;;;;28.13;52.04;101304.53;5013688;28;20698;-70
2023/06/26 05:37:43;;;;;;;0.00;0.00;;;;;;;29.09;49.12;101310.00;5014597;28;20652;-69
2023/06/26 05:40:09;;;;;;;0.00;0.00;;;;;;;28.50;50.82;101320.31;5010909;28;20030;-67
2023/06/26 05:42:35;;;;;;;0.00;0.00;;;;;;;28.45;50.79;101316.91;5025501;28;20661;-72
2023/06/26 05:45:00;;;;;;;0.00;0.00;;;;;;;28.37;50.89;101321.34;5012198;28;20720;-73
2023/06/26 05:47:26;;;;;;;0.00;0.00;;;;;;;29.04;49.10;101323.25;5012651;28;20022;-75
2023/06/26 05:49:51;;;;;;;0.00;0.00;;;;;;;27.74;52.03;101330.47;5012213;28;20030;-73
2023/06/26 05:52:17;;;;;;;0.00;0.00;;;;;;;27.57;52.52;101332.47;5011623;28;20042;-72
2023/06/26 05:54:43;;;;;;;0.00;0.00;;;;;;;27.81;52.47;101343.81;4993861;28;20049;-72
2023/06/26 05:57:09;;;;;;;0.00;0.00;;;;;;;28.22;50.04;101346.81;5012259;28;20025;-75
2023/06/26 05:59:39;;;;;;;0.00;0.00;;;;;;;27.88;51.14;101346.88;5012625;28;20041;-72
2023/06/26 06:02:04;;;;;;;0.00;0.00;;;;;;;29.27;47.79;101347.53;4994357;28;20054;-72
2023/06/26 06:04:30;;;;;;;0.00;0.00;;;;;;;28.52;48.42;101362.25;5005051;28;20034;-73
2023/06/26 06:06:55;;;;;;;0.00;0.00;;;;;;;27.97;50.60;101363.47;5012671;28;20429;-73
2023/06/26 06:09:21;;;;;;;0.00;0.00;;;;;;;27.68;51.12;101364.94;5011003;28;20422;-70
2023/06/26 06:11:46;;;;;;;0.00;0.00;;;;;;;27.83;50.88;101376.63;5011833;28;20022;-72
2023/06/26 06:14:12;;;;;;;0.00;0.00;;;;;;;28.07;49.76;101376.94;5010795;28;20026;-70
2023/06/26 06:16:37;;;;;;;0.00;0.00;;;;;;;27.68;49.72;101373.22;5011038;28;20038;-71
2023/06/26 06:19:03;;;;;;;0.00;0.00;;;;;;;28.52;46.70;101378.06;5010837;28;20548;-70
2023/06/26 06:21:28;;;;;;;0.00;0.00;;;;;;;28.71;45.31;101384.03;5012221;28;20057;-70
2023/06/26 06:23:54;;;;;;;0.00;0.00;;;;;;;27.88;45.40;101390.25;5010496;28;20034;-72
2023/06/26 06:26:19;;;;;;;0.00;0.00;;;;;;;28.30;43.86;101404.03;5011301;28;20033;-70
2023/06/26 06:28:44;;;;;;;0.00;0.00;;;;;;;27.14;46.91;101404.22;5010671;28;20057;-70
2023/06/26 06:31:10;;;;;;;0.00;0.00;;;;;;;27.08;47.33;101412.94;5006079;28;20490;-75
2023/06/26 06:33:35;;;;;;;0.00;0.00;;;;;;;28.01;44.84;101412.19;5010376;28;20041;-72
2023/06/26 06:36:01;;;;;;;0.00;0.00;;;;;;;28.16;44.54;101422.75;5010595;28;20096;-69
2023/06/26 06:38:26;;;;;;;0.00;0.00;;;;;;;28.37;44.75;101425.59;5011160;28;20041;-70
2023/06/26 06:40:51;;;;;;;0.00;0.00;;;;;;;28.25;44.85;101437.34;5010584;28;20487;-70
2023/06/26 06:43:17;;;;;;;0.00;0.00;;;;;;;28.87;42.89;101440.41;5010591;28;20096;-71
2023/06/26 06:45:42;;;;;;;0.00;0.00;;;;;;;28.46;44.19;101441.03;5010642;28;20042;-71
2023/06/26 06:48:07;;;;;;;0.00;0.00;;;;;;;27.41;46.85;101439.81;5010689;28;20050;-70
2023/06/26 06:50:33;;;;;;;0.00;0.00;;;;;;;27.87;46.16;101447.47;5011123;28;20049;-69
2023/06/26 06:53:01;;;;;;;0.00;0.00;;;;;;;27.65;45.64;101445.69;5012615;28;20038;-73
2023/06/26 06:55:27;;;;;;;0.00;0.00;;;;;;;27.41;46.09;101447.28;5014805;28;20057;-69
2023/06/26 06:57:52;;;;;;;0.00;0.00;;;;;;;28.64;43.92;101447.34;5014681;28;20580;-68
2023/06/26 07:00:18;;;;;;;0.00;0.00;;;;;;;28.29;45.23;101454.91;5014275;28;20490;-70
2023/06/26 07:02:45;;;;;;;0.00;0.00;;;;;;;27.29;47.48;101452.59;5014492;28;20068;-70
2023/06/26 07:05:11;;;;;;;0.00;0.00;;;;;;;27.26;47.46;101465.09;5014552;28;20030;-70
2023/06/26 07:07:37;;;;;;;0.00;0.00;;;;;;;28.47;44.76;101480.56;5014460;28;20037;-70
2023/06/26 07:10:05;;;;;;;0.00;0.00;;;;;;;28.54;43.89;101472.56;5013282;28;20378;-70
2023/06/26 07:12:31;;;;;;;0.00;0.00;;;;;;;27.78;46.28;101474.28;5014383;28;20112;-72
2023/06/26 07:14:57;;;;;;;0.00;0.00;;;;;;;27.53;46.78;101483.38;5014256;28;20038;-71
2023/06/26 07:17:22;;;;;;;0.00;0.00;;;;;;;27.06;47.76;101476.75;5014899;28;20025;-72
2023/06/26 07:19:49;;;;;;;0.00;0.00;;;;;;;28.16;45.55;101468.91;5014484;28;20041;-77
2023/06/26 07:22:15;;;;;;;0.00;0.00;;;;;;;27.92;46.71;101480.47;5014552;28;20077;-74
2023/06/26 07:24:40;;;;;;;0.00;0.00;;;;;;;27.60;46.21;101478.16;5014685;28;20521;-73
2023/06/26 07:27:05;;;;;;;0.00;0.00;;;;;;;27.29;47.43;101486.53;5014427;28;20033;-74
2023/06/26 07:29:31;;;;;;;0.00;0.00;;;;;;;28.50;44.39;101490.97;4997070;28;20573;-74
2023/06/26 07:31:56;;;;;;;0.00;0.00;;;;;;;28.28;45.09;101492.00;5013637;28;20030;-73
2023/06/26 07:34:22;;;;;;;0.00;0.00;;;;;;;28.74;43.76;101501.53;5014095;28;20742;-74
2023/06/26 07:36:47;;;;;;;0.00;0.00;;;;;;;28.38;44.82;101499.94;5012759;28;20034;-71
2023/06/26 07:39:12;;;;;;;0.00;0.00;;;;;;;27.29;47.78;101503.09;5014153;28;20049;-77
2023/06/26 07:41:38;;;;;;;0.00;0.00;;;;;;;27.75;46.51;101503.34;5014676;28;20033;-75
2023/06/26 07:44:03;;;;;;;0.00;0.00;;;;;;;28.23;45.35;101514.28;5013885;28;20095;-75
2023/06/26 07:46:29;;;;;;;0.00;0.00;;;;;;;27.86;45.92;101514.09;5013895;28;20034;-74
2023/06/26 07:48:54;;;;;;;0.00;0.00;;;;;;;28.30;45.04;101522.91;5013561;28;20030;-73
2023/06/26 07:51:20;;;;;;;0.00;0.00;;;;;;;28.37;44.06;101519.63;5013917;28;20119;-74
2023/06/26 07:53:45;;;;;;;0.00;0.00;;;;;;;28.07;44.63;101510.38;4995833;28;20041;-70
2023/06/26 07:56:11;;;;;;;0.00;0.00;;;;;;;27.91;45.75;101517.50;5014177;28;20042;-73
2023/06/26 07:58:36;;;;;;;0.00;0.00;;;;;;;28.11;45.23;101522.41;5014332;28;20641;-74
2023/06/26 08:01:02;;;;;;;0.00;0.00;;;;;;;29.19;43.04;101522.81;5013504;28;20438;-76
2023/06/26 08:03:27;;;;;;;0.00;0.00;;;;;;;28.22;45.52;101529.25;5013495;28;20046;-75
2023/06/26 08:05:52;;;;;;;0.00;0.00;;;;;;;28.95;43.84;101530.09;5013207;28;20073;-75
2023/06/26 08:08:18;;;;;;;0.00;0.00;;;;;;;28.39;44.74;101542.22;5013892;28;20466;-72
2023/06/26 08:10:43;;;;;;;0.00;0.00;;;;;;;28.58;44.36;101540.75;5011840;28;20050;-75
2023/06/26 08:13:08;;;;;;;0.00;0.00;;;;;;;28.52;44.25;101530.97;5013857;28;20037;-72
2023/06/26 08:15:34;;;;;;;0.00;0.00;;;;;;;27.81;44.14;101539.94;5014652;28;20076;-73
2023/06/26 08:17:59;;;;;;;0.00;0.00;;;;;;;27.78;44.73;101549.69;5013324;28;20049;-73
2023/06/26 08:20:41;;;;;;;0.00;0.00;;;;;;;27.92;44.00;101544.00;5078536;27;21224;-71
2023/06/26 08:23:07;;;;;;;0.00;0.00;;;;;;;29.00;42.43;101547.31;5068596;28;20048;-73
2023/06/26 08:25:32;;;;;;;0.00;0.00;;;;;;;27.58;44.81;101555.00;5068517;28;20033;-74
2023/06/26 08:27:58;;;;;;;0.00;0.00;;;;;;;27.77;43.74;101542.53;5068720;28;20389;-74
2023/06/26 08:30:27;;;;;;;0.00;0.00;;;;;;;28.14;43.68;101546.66;5068998;28;20025;-74
2023/06/26 08:32:53;;;;;;;0.00;0.00;;;;;;;29.08;41.06;101551.19;5068128;28;20127;-73
2023/06/26 08:35:19;;;;;;;0.00;0.00;;;;;;;28.48;42.89;101554.09;5068464;28;20434;-73
2023/06/26 08:37:44;;;;;;;0.00;0.00;;;;;;;28.32;43.56;101547.44;5068115;28;20559;-73
2023/06/26 08:40:10;;;;;;;0.00;0.00;;;;;;;28.33;44.64;101551.81;5068501;28;20082;-77
2023/06/26 08:42:35;;;;;;;0.00;0.00;;;;;;;28.31;44.02;101557.69;5068827;28;20107;-75
2023/06/26 08:45:01;;;;;;;0.00;0.00;;;;;;;28.12;45.32;101582.09;5066646;28;20039;-73
2023/06/26 08:47:27;;;;;;;0.00;0.00;;;;;;;28.44;44.69;101573.28;5079263;28;20090;-74
2023/06/26 08:50:09;;;;;;;0.00;0.00;;;;;;;27.95;46.15;101578.50;5079893;28;20052;-75
2023/06/26 08:52:40;;;;;;;0.00;0.00;;;;;;;28.18;45.97;101583.56;5100575;28;20037;-74
2023/06/26 08:55:09;;;;;;;0.00;0.00;;;;;;;28.96;43.83;101578.75;5068183;28;20025;-77
2023/06/26 08:57:36;;;;;;;0.00;0.00;;;;;;;28.57;44.41;101577.88;5068944;28;20032;-74
2023/06/26 09:00:03;;;;;;;0.00;0.00;;;;;;;28.41;44.97;101589.72;5068085;28;20037;-75
2023/06/26 09:02:28;;;;;;;0.00;0.00;;;;;;;28.41;44.93;101590.53;5068385;28;20511;-76
2023/06/26 09:04:54;;;;;;;0.00;0.00;;;;;;;28.64;44.17;101585.66;5068885;28;20037;-77
2023/06/26 09:07:19;;;;;;;0.00;0.00;;;;;;;29.03;43.42;101579.06;5068023;28;20063;-75
2023/06/26 09:09:45;;;;;;;0.00;0.00;;;;;;;29.30;42.59;101585.00;5052170;28;20025;-75
2023/06/26 09:12:10;;;;;;;0.00;0.00;;;;;;;28.56;44.14;101583.72;5066720;28;20037;-75
2023/06/26 09:14:38;;;;;;;0.00;0.00;;;;;;;28.90;42.09;101599.44;5067194;28;20037;-76
2023/06/26 09:17:03;;;;;;;0.00;0.00;;;;;;;29.23;40.54;101598.53;5066032;28;20035;-77
2023/06/26 09:19:28;;;;;;;0.00;0.00;;;;;;;28.56;42.48;101598.34;5067185;28;20050;-74
2023/06/26 09:21:54;;;;;;;0.00;0.00;;;;;;;29.39;40.27;101587.72;5048087;28;20036;-71
2023/06/26 09:24:21;;;;;;;0.00;0.00;;;;;;;29.21;40.30;101588.94;5067959;28;20048;-75
2023/06/26 09:26:47;;;;;;;0.00;0.00;;;;;;;29.40;38.62;101595.69;5067302;28;20039;-75
2023/06/26 09:29:14;;;;;;;0.00;0.00;;;;;;;29.81;37.58;101603.31;5067160;28;20044;-74
2023/06/26 09:31:39;;;;;;;0.00;0.00;;;;;;;29.47;37.90;101597.94;5054308;28;20074;-74
2023/06/26 09:34:05;;;;;;;0.00;0.00;;;;;;;29.12;40.09;101596.44;5030513;28;20030;-75
2023/06/26 09:36:32;;;;;;;0.00;0.00;;;;;;;29.10;40.35;101602.31;5053675;28;20021;-74
2023/06/26 09:39:00;;;;;;;0.00;0.00;;;;;;;29.97;37.89;101618.22;5052739;28;20658;-74
2023/06/26 09:41:27;;;;;;;0.00;0.00;;;;;;;28.90;39.93;101597.47;5055006;28;20686;-73
2023/06/26 09:43:52;;;;;;;0.00;0.00;;;;;;;29.77;38.17;101618.19;5073232;28;20028;-74
2023/06/26 09:46:24;;;;;;;0.00;0.00;;;;;;;28.27;42.72;101627.78;5072031;28;20507;-72
2023/06/26 09:48:57;;;;;;;0.00;0.00;;;;;;;27.89;44.39;101633.09;5072508;28;20029;-74
2023/06/26 09:51:22;;;;;;;0.00;0.00;;;;;;;28.84;42.87;101629.25;5070674;28;20039;-72
2023/06/26 09:53:48;;;;;;;0.00;0.00;;;;;;;28.60;41.68;101629.75;5072113;28;20034;-74
2023/06/26 09:56:17;;;;;;;0.00;0.00;;;;;;;28.72;37.87;101633.84;5071595;28;20028;-73
2023/06/26 09:58:44;;;;;;;0.00;0.00;;;;;;;29.29;37.71;101632.41;5071980;28;20048;-71
2023/06/26 10:01:09;;;;;;;0.00;0.00;;;;;;;30.13;36.04;101637.84;5072507;28;20043;-72
2023/06/26 10:03:35;;;;;;;0.00;0.00;;;;;;;29.63;37.00;101636.97;5072326;28;20373;-72
2023/06/26 10:06:02;;;;;;;0.00;0.00;;;;;;;28.92;38.72;101635.88;5072129;28;20028;-72
2023/06/26 10:08:29;;;;;;;0.00;0.00;;;;;;;29.55;35.06;101641.41;5071406;28;20024;-73
2023/06/26 10:10:56;;;;;;;0.00;0.00;;;;;;;29.39;36.38;101638.38;5071969;28;20063;-74
2023/06/26 10:13:27;;;;;;;0.00;0.00;;;;;;;29.95;35.85;101637.16;5071989;28;20112;-74
2023/06/26 10:15:54;;;;;;;0.00;0.00;;;;;;;29.80;35.55;101643.25;5078570;28;20020;-73
2023/06/26 10:18:23;;;;;;;0.00;0.00;;;;;;;29.47;34.92;101650.56;5071351;28;20480;-71
2023/06/26 10:20:51;;;;;;;0.00;0.00;;;;;;;29.01;36.55;101650.53;5071805;28;20500;-72
2023/06/26 10:23:20;;;;;;;0.00;0.00;;;;;;;29.80;34.40;101662.66;5069530;28;20064;-77
2023/06/26 10:25:48;;;;;;;0.00;0.00;;;;;;;30.42;34.05;101653.63;5071387;28;20119;-72
2023/06/26 10:28:15;;;;;;;0.00;0.00;;;;;;;30.35;33.99;101662.50;5071616;28;20025;-74
2023/06/26 10:30:43;;;;;;;0.00;0.00;;;;;;;30.65;32.10;101668.78;5072024;28;20072;-74
2023/06/26 10:33:09;;;;;;;0.00;0.00;;;;;;;29.94;33.47;101670.72;5070807;28;20028;-74
2023/06/26 10:35:44;;;;;;;0.00;0.00;;;;;;;30.33;32.66;101677.88;5069889;28;20660;-72
2023/06/26 10:38:10;;;;;;;0.00;0.00;;;;;;;31.17;32.10;101689.38;5071949;28;20048;-73
2023/06/26 10:40:48;;;;;;;0.00;0.00;;;;;;;30.52;32.78;101681.78;5067086;28;20077;-75
2023/06/26 10:43:15;;;;;;;0.00;0.00;;;;;;;30.55;33.66;101683.06;5071330;28;20789;-72
2023/06/26 10:45:45;;;;;;;0.00;0.00;;;;;;;29.49;36.33;101695.38;5072697;28;20028;-71
2023/06/26 10:48:14;;;;;;;0.00;0.00;;;;;;;28.86;36.94;101692.56;5071399;28;20508;-72
2023/06/26 10:50:39;;;;;;;0.00;0.00;;;;;;;29.67;35.69;101694.16;5071490;28;20032;-72
2023/06/26 10:53:24;;;;;;;0.00;0.00;;;;;;;30.07;35.10;101694.66;5071809;28;20062;-71
2023/06/26 10:55:57;;;;;;;0.00;0.00;;;;;;;29.56;36.09;101698.47;5070508;28;20033;-73
2023/06/26 10:58:41;;;;;;;0.00;0.00;;;;;;;29.33;35.88;101702.59;5053209;28;20102;-74
2023/06/26 11:01:22;;;;;;;0.00;0.00;;;;;;;29.03;34.87;101698.88;5071002;28;20591;-71
2023/06/26 11:03:52;;;;;;;0.00;0.00;;;;;;;29.68;34.44;101706.88;5071264;28;20017;-74
2023/06/26 11:06:20;;;;;;;0.00;0.00;;;;;;;30.16;34.78;101699.00;5072122;28;20029;-73
2023/06/26 11:08:55;;;;;;;0.00;0.00;;;;;;;29.67;34.23;101709.97;5075506;28;20048;-72
2023/06/26 11:11:22;;;;;;;0.00;0.00;;;;;;;30.01;32.82;101707.91;5072028;28;20123;-74
2023/06/26 11:13:47;;;;;;;0.00;0.00;;;;;;;29.89;33.90;101704.19;5066204;28;20032;-70
2023/06/26 11:16:14;;;;;;;0.00;0.00;;;;;;;30.52;32.58;101703.16;5070509;28;20540;-72
2023/06/26 11:18:40;;;;;;;0.00;0.00;;;;;;;30.88;31.98;101714.50;5071113;28;20033;-72
2023/06/26 11:21:11;;;;;;;0.00;0.00;;;;;;;30.65;31.38;101708.44;5065642;28;20041;-74
2023/06/26 11:23:37;;;;;;;0.00;0.00;;;;;;;30.46;30.36;101713.66;5082096;28;20703;-73